Time;durP1;ratioP1;P1;durP2;ratioP2;P2;SDS_P1;SDS_P2;PMS_P1;PMS_P2;Temp;Humidity;BMP_temperature;BMP_pressure;BME280_temperature;BME280_humidity;BME280_pressure;Samples;Min_cycle;Max_cycle;Signal;HPM_P1;HPM_P2
2021/12/23 00:00:01;;;;;;;54.20;10.37;;;;;;;0.04;100.00;98341.78;5089255;28;20628;-61
2021/12/23 00:02:28;;;;;;;41.70;9.07;;;;;;;0.10;100.00;98345.47;5089098;28;20663;-63
2021/12/23 00:04:54;;;;;;;35.17;8.93;;;;;;;0.06;100.00;98355.53;5089196;28;20597;-62
2021/12/23 00:07:21;;;;;;;38.03;8.50;;;;;;;-0.06;100.00;98347.31;5089209;28;20597;-63
2021/12/23 00:10:04;;;;;;;43.70;10.27;;;;;;;-0.26;100.00;98345.47;5089176;28;20624;-63
2021/12/23 00:12:31;;;;;;;26.00;8.20;;;;;;;-0.34;100.00;98338.50;5089168;28;20639;-62
2021/12/23 00:14:59;;;;;;;31.77;8.70;;;;;;;-0.13;100.00;98335.13;5089257;28;20671;-62
2021/12/23 00:17:40;;;;;;;59.57;10.77;;;;;;;-0.06;100.00;98328.13;5089079;28;20635;-62
2021/12/23 00:25:33;;;;;;;31.63;10.03;;;;;;;0.19;100.00;98310.19;5088947;28;20607;-61
2021/12/23 00:28:00;;;;;;;53.43;10.73;;;;;;;0.12;100.00;98318.03;5088916;28;20594;-63
2021/12/23 00:30:28;;;;;;;50.50;11.20;;;;;;;0.14;100.00;98320.47;5090839;28;21211;-62
2021/12/23 00:32:56;;;;;;;33.63;8.67;;;;;;;0.11;100.00;98315.59;5092543;28;21004;-62
2021/12/23 00:35:24;;;;;;;44.97;10.00;;;;;;;0.10;100.00;98314.75;5092437;28;20625;-62
2021/12/23 00:37:57;;;;;;;56.10;10.63;;;;;;;-0.14;100.00;98310.69;5092435;28;20621;-62
2021/12/23 00:40:24;;;;;;;31.93;8.73;;;;;;;-0.06;100.00;98321.06;5092410;28;20666;-62
2021/12/23 00:42:51;;;;;;;30.13;9.00;;;;;;;-0.08;100.00;98323.06;5092174;28;20649;-63
2021/12/23 00:45:17;;;;;;;48.80;11.23;;;;;;;-0.14;100.00;98326.44;5092345;28;20610;-61
2021/12/23 00:47:45;;;;;;;50.43;13.00;;;;;;;-0.10;100.00;98326.88;5084004;28;20602;-62
2021/12/23 00:50:12;;;;;;;69.70;12.90;;;;;;;-0.33;100.00;98313.91;5092319;28;20598;-62
2021/12/23 00:52:40;;;;;;;29.90;10.73;;;;;;;-0.31;100.00;98311.09;5092682;28;20628;-62
2021/12/23 00:55:09;;;;;;;25.93;9.50;;;;;;;-0.36;100.00;98314.25;5097340;28;20608;-61
2021/12/23 00:57:39;;;;;;;43.97;12.93;;;;;;;-0.66;100.00;98317.91;5092040;28;20630;-62
2021/12/23 01:00:08;;;;;;;42.93;10.20;;;;;;;-0.67;100.00;98316.28;5092027;28;20619;-62
2021/12/23 01:02:35;;;;;;;53.90;12.13;;;;;;;-0.72;100.00;98314.22;5091789;28;20645;-63
2021/12/23 01:05:03;;;;;;;41.57;12.17;;;;;;;-0.62;100.00;98314.75;5091930;28;20609;-62
2021/12/23 01:07:30;;;;;;;31.23;11.27;;;;;;;-0.62;100.00;98324.44;5091942;28;20616;-61
2021/12/23 01:09:57;;;;;;;62.67;12.33;;;;;;;-0.62;100.00;98329.69;5091834;28;20617;-62
2021/12/23 01:12:29;;;;;;;36.93;12.77;;;;;;;-0.50;100.00;98317.72;5092007;28;20606;-61
2021/12/23 01:14:59;;;;;;;36.17;11.80;;;;;;;-0.69;100.00;98323.53;5091793;28;20701;-61
2021/12/23 01:17:52;;;;;;;68.97;14.20;;;;;;;-0.73;100.00;98312.59;5091816;28;20713;-61
2021/12/23 01:20:25;;;;;;;67.30;12.40;;;;;;;-0.57;100.00;98311.59;5091582;28;20614;-63
2021/12/23 01:22:52;;;;;;;32.30;10.53;;;;;;;-0.53;100.00;98307.59;5084195;28;20680;-63
2021/12/23 01:25:18;;;;;;;39.43;10.87;;;;;;;-0.45;100.00;98310.13;5091605;28;20616;-62
2021/12/23 01:27:45;;;;;;;45.17;11.03;;;;;;;-0.46;100.00;98307.69;5083478;28;20589;-62
2021/12/23 01:30:13;;;;;;;40.03;12.13;;;;;;;-0.55;100.00;98312.19;5091832;28;20602;-62
2021/12/23 01:32:40;;;;;;;63.53;12.83;;;;;;;-0.58;100.00;98308.13;5091536;28;20613;-62
2021/12/23 01:35:08;;;;;;;32.57;11.07;;;;;;;-0.62;100.00;98308.69;5091423;28;20694;-62
2021/12/23 01:37:36;;;;;;;48.03;12.27;;;;;;;-0.58;100.00;98315.19;5091319;28;20593;-63
2021/12/23 01:40:04;;;;;;;52.70;11.27;;;;;;;-0.73;100.00;98312.59;5091158;28;20688;-61
2021/12/23 01:42:30;;;;;;;37.20;11.43;;;;;;;-0.62;100.00;98303.47;5090744;28;20634;-61
2021/12/23 01:44:57;;;;;;;29.33;11.03;;;;;;;-0.56;100.00;98298.28;5091184;28;20610;-62
2021/12/23 01:47:24;;;;;;;40.80;10.90;;;;;;;-0.43;100.00;98287.13;5091038;28;20610;-62
2021/12/23 01:49:51;;;;;;;49.63;11.87;;;;;;;-0.34;100.00;98290.47;5091018;28;20605;-62
2021/12/23 01:52:18;;;;;;;40.17;12.87;;;;;;;-0.36;100.00;98295.91;5091136;28;20636;-62
2021/12/23 01:54:46;;;;;;;38.63;11.10;;;;;;;-0.32;100.00;98299.78;5095460;28;21008;-62
2021/12/23 01:57:14;;;;;;;29.10;11.50;;;;;;;-0.25;100.00;98305.91;5091171;28;20613;-63
2021/12/23 01:59:41;;;;;;;68.60;13.50;;;;;;;-0.29;100.00;98283.66;5090944;28;20601;-62
2021/12/23 02:02:08;;;;;;;35.43;11.47;;;;;;;-0.29;100.00;98288.91;5091005;28;20605;-61
2021/12/23 02:04:34;;;;;;;45.33;12.37;;;;;;;-0.35;100.00;98289.66;5090929;28;20636;-61
2021/12/23 02:07:01;;;;;;;37.77;12.83;;;;;;;-0.60;100.00;98293.59;5090791;28;20635;-62
2021/12/23 02:09:28;;;;;;;42.93;11.33;;;;;;;-0.55;100.00;98299.09;5090642;28;20605;-62
2021/12/23 02:11:56;;;;;;;33.07;11.17;;;;;;;-0.51;100.00;98284.63;5090699;28;20597;-62
2021/12/23 02:14:23;;;;;;;38.37;10.37;;;;;;;-0.45;100.00;98262.06;5090693;28;20716;-61
2021/12/23 02:16:49;;;;;;;42.07;13.23;;;;;;;-0.45;100.00;98277.81;5090564;28;20621;-63
2021/12/23 02:19:18;;;;;;;25.70;9.83;;;;;;;-0.58;100.00;98281.09;5090569;28;20616;-62
2021/12/23 02:21:47;;;;;;;51.73;12.00;;;;;;;-0.68;100.00;98277.97;5090347;28;20616;-61
2021/12/23 02:24:14;;;;;;;60.07;11.83;;;;;;;-0.58;100.00;98274.03;5090380;28;20750;-63
2021/12/23 02:26:42;;;;;;;54.33;11.77;;;;;;;-0.53;100.00;98265.63;5090377;28;20594;-62
2021/12/23 02:29:10;;;;;;;35.47;11.30;;;;;;;-0.51;100.00;98253.13;5090404;28;20609;-62
2021/12/23 02:31:37;;;;;;;51.77;11.87;;;;;;;-0.47;100.00;98243.09;5090295;28;20620;-62
2021/12/23 02:34:04;;;;;;;38.23;10.33;;;;;;;-0.47;100.00;98249.16;5089133;28;20610;-62
2021/12/23 02:36:31;;;;;;;40.67;10.10;;;;;;;-0.56;100.00;98256.28;5090171;28;20643;-62
2021/12/23 02:39:00;;;;;;;32.73;10.30;;;;;;;-0.61;100.00;98240.31;5090362;28;20601;-62
2021/12/23 02:41:27;;;;;;;33.07;10.27;;;;;;;-0.56;100.00;98237.16;5090155;28;20617;-62
2021/12/23 02:43:53;;;;;;;62.40;11.93;;;;;;;-0.48;100.00;98236.22;5089803;28;20691;-62
2021/12/23 02:46:21;;;;;;;54.53;11.87;;;;;;;-0.45;100.00;98236.66;5090134;28;20613;-62
2021/12/23 02:48:48;;;;;;;54.90;11.40;;;;;;;-0.60;100.00;98225.38;5090157;28;21171;-62
2021/12/23 02:51:16;;;;;;;32.47;10.03;;;;;;;-0.61;100.00;98247.34;5090013;28;20613;-62
2021/12/23 02:53:45;;;;;;;53.53;10.30;;;;;;;-0.54;100.00;98235.13;5095412;28;20597;-64
2021/12/23 02:56:15;;;;;;;29.97;9.33;;;;;;;-0.48;100.00;98237.03;5090008;28;20614;-61
2021/12/23 02:58:44;;;;;;;37.67;10.40;;;;;;;-0.55;100.00;98238.75;5089794;28;20606;-61
2021/12/23 03:01:11;;;;;;;26.10;8.90;;;;;;;-0.53;100.00;98239.41;5089815;28;20632;-61
2021/12/23 03:03:38;;;;;;;63.97;12.40;;;;;;;-0.51;100.00;98231.34;5089781;28;20672;-63
2021/12/23 03:06:06;;;;;;;23.43;8.73;;;;;;;-0.50;100.00;98233.78;5089896;28;20635;-61
2021/12/23 03:08:35;;;;;;;50.97;11.50;;;;;;;-0.65;100.00;98230.38;5089658;28;20605;-62
2021/12/23 03:11:02;;;;;;;32.33;10.90;;;;;;;-0.67;100.00;98227.13;5089719;28;20609;-62
2021/12/23 03:13:30;;;;;;;43.17;10.63;;;;;;;-0.70;100.00;98223.06;5089648;28;20651;-62
2021/12/23 03:15:58;;;;;;;50.87;11.03;;;;;;;-0.69;100.00;98214.19;5089615;28;20640;-62
2021/12/23 03:18:25;;;;;;;26.00;9.10;;;;;;;-0.74;100.00;98220.97;5089607;28;20627;-62
2021/12/23 03:20:51;;;;;;;31.83;10.03;;;;;;;-0.93;100.00;98226.81;5089637;28;20613;-62
2021/12/23 03:23:18;;;;;;;41.73;10.20;;;;;;;-1.02;100.00;98226.06;5089316;28;20675;-62
2021/12/23 03:25:45;;;;;;;42.40;9.23;;;;;;;-0.92;100.00;98220.53;5081392;28;20597;-61
2021/12/23 03:28:11;;;;;;;26.57;8.47;;;;;;;-0.79;100.00;98207.59;5089688;28;20621;-61
2021/12/23 03:30:39;;;;;;;53.07;10.83;;;;;;;-0.69;100.00;98210.75;5089549;28;20618;-62
2021/12/23 03:33:06;;;;;;;47.37;11.27;;;;;;;-0.66;100.00;98216.47;5089382;28;20629;-62
2021/12/23 03:35:34;;;;;;;77.33;13.23;;;;;;;-0.70;100.00;98196.00;5089386;28;20627;-62
2021/12/23 03:38:01;;;;;;;38.97;10.03;;;;;;;-0.71;100.00;98183.88;5089552;28;20639;-63
2021/12/23 03:40:28;;;;;;;35.87;10.50;;;;;;;-0.94;100.00;98175.38;5089555;28;20693;-62
2021/12/23 03:42:54;;;;;;;30.53;10.20;;;;;;;-1.19;100.00;98165.19;5089327;28;20640;-62
2021/12/23 03:45:21;;;;;;;33.17;12.00;;;;;;;-1.43;100.00;98164.66;5089472;28;20677;-62
2021/12/23 03:47:50;;;;;;;57.53;12.07;;;;;;;-1.63;100.00;98162.56;5089557;28;20619;-62
2021/12/23 03:50:17;;;;;;;30.90;8.77;;;;;;;-1.87;100.00;98164.63;5089511;28;20617;-63
2021/12/23 03:52:45;;;;;;;55.90;11.60;;;;;;;-1.76;100.00;98151.09;5090474;28;20621;-62
2021/12/23 03:55:14;;;;;;;40.27;9.13;;;;;;;-1.78;100.00;98146.03;5093654;28;20667;-61
2021/12/23 03:57:41;;;;;;;37.97;10.53;;;;;;;-1.81;100.00;98151.63;5089449;28;21132;-62
2021/12/23 04:00:12;;;;;;;28.57;10.13;;;;;;;-1.48;100.00;98144.22;5089432;28;21171;-62
2021/12/23 04:02:39;;;;;;;50.97;9.73;;;;;;;-1.36;100.00;98136.75;5089364;28;20602;-62
2021/12/23 04:05:08;;;;;;;85.60;13.33;;;;;;;-1.36;100.00;98148.03;5092138;28;20612;-62
2021/12/23 04:07:35;;;;;;;42.20;9.80;;;;;;;-1.21;100.00;98145.41;5092956;28;20613;-63
2021/12/23 04:10:02;;;;;;;41.87;9.60;;;;;;;-1.33;100.00;98139.78;5093003;28;20601;-61
2021/12/23 04:12:28;;;;;;;45.60;11.80;;;;;;;-1.40;100.00;98136.31;5092996;28;20627;-62
2021/12/23 04:14:55;;;;;;;31.07;10.37;;;;;;;-1.57;100.00;98129.59;5092714;28;20649;-62
2021/12/23 04:17:22;;;;;;;28.00;10.27;;;;;;;-1.35;100.00;98128.69;5092955;28;20659;-61
2021/12/23 04:19:49;;;;;;;40.70;9.90;;;;;;;-1.30;100.00;98131.56;5093000;28;20606;-61
2021/12/23 04:22:17;;;;;;;39.53;10.10;;;;;;;-1.25;100.00;98124.00;5092692;28;20648;-61
2021/12/23 04:24:44;;;;;;;36.37;8.63;;;;;;;-1.47;100.00;98132.78;5099092;28;20613;-62
2021/12/23 04:27:11;;;;;;;74.73;12.53;;;;;;;-1.82;100.00;98138.72;5092735;28;20620;-62
2021/12/23 04:29:37;;;;;;;32.00;9.50;;;;;;;-1.98;100.00;98136.28;5092625;28;20609;-61
2021/12/23 04:32:05;;;;;;;44.50;10.10;;;;;;;-2.10;100.00;98145.53;5092613;28;20613;-61
2021/12/23 04:34:31;;;;;;;34.33;9.67;;;;;;;-1.76;100.00;98120.47;5092553;28;20641;-62
2021/12/23 04:36:58;;;;;;;30.63;9.77;;;;;;;-1.61;100.00;98112.66;5092596;28;20614;-62
2021/12/23 04:39:26;;;;;;;26.37;9.73;;;;;;;-1.51;100.00;98092.22;5092567;28;20589;-62
2021/12/23 04:41:53;;;;;;;100.23;14.60;;;;;;;-1.35;100.00;98094.66;5092462;28;20619;-62
2021/12/23 04:44:19;;;;;;;47.27;9.40;;;;;;;-1.39;100.00;98100.44;5092290;28;20683;-62
2021/12/23 04:46:46;;;;;;;35.17;10.37;;;;;;;-1.38;100.00;98097.63;5084312;28;20605;-62
2021/12/23 04:49:12;;;;;;;31.77;9.60;;;;;;;-1.54;100.00;98081.28;5092214;28;21009;-61
2021/12/23 04:51:39;;;;;;;37.03;9.33;;;;;;;-1.94;100.00;98090.41;5092198;28;20601;-61
2021/12/23 04:54:06;;;;;;;32.33;9.60;;;;;;;-2.20;100.00;98090.84;5098373;28;20648;-62
2021/12/23 04:56:33;;;;;;;41.63;12.87;;;;;;;-2.51;100.00;98100.59;5092107;28;20601;-61
2021/12/23 04:59:00;;;;;;;34.30;10.47;;;;;;;-2.65;100.00;98091.72;5092004;28;20610;-61
2021/12/23 05:01:30;;;;;;;49.73;11.67;;;;;;;-3.01;100.00;98090.66;5092069;28;20617;-61
2021/12/23 05:03:57;;;;;;;60.37;11.17;;;;;;;-2.82;100.00;98087.59;5091931;28;20645;-63
2021/12/23 05:06:23;;;;;;;58.43;12.20;;;;;;;-2.73;100.00;98091.78;5092179;28;20616;-63
2021/12/23 05:08:50;;;;;;;56.73;12.10;;;;;;;-2.56;100.00;98090.66;5091884;28;20602;-62
2021/12/23 05:11:17;;;;;;;49.60;11.07;;;;;;;-2.48;100.00;98081.94;5092045;28;20644;-62
2021/12/23 05:13:47;;;;;;;33.70;10.17;;;;;;;-2.42;100.00;98082.06;5091824;28;20666;-62
2021/12/23 05:16:14;;;;;;;57.97;10.93;;;;;;;-2.53;100.00;98079.84;5091045;28;20606;-61
2021/12/23 05:18:40;;;;;;;54.40;12.73;;;;;;;-2.29;100.00;98079.63;5091779;28;20632;-62
2021/12/23 05:21:07;;;;;;;30.30;11.20;;;;;;;-2.13;100.00;98080.47;5091768;28;20843;-62
2021/12/23 05:23:34;;;;;;;55.03;12.30;;;;;;;-1.99;100.00;98082.31;5097804;28;20643;-62
2021/12/23 05:26:01;;;;;;;50.50;12.50;;;;;;;-1.99;100.00;98084.91;5091732;28;20663;-62
2021/12/23 05:28:27;;;;;;;51.40;11.37;;;;;;;-2.03;100.00;98091.50;5091666;28;20651;-62
2021/12/23 05:30:55;;;;;;;27.90;11.13;;;;;;;-1.84;100.00;98090.97;5091651;28;20613;-62
2021/12/23 05:33:22;;;;;;;46.43;11.93;;;;;;;-1.97;100.00;98077.69;5091391;28;20605;-62
2021/12/23 05:35:48;;;;;;;35.40;11.80;;;;;;;-2.05;100.00;98067.31;5091504;28;20610;-62
2021/12/23 05:38:15;;;;;;;48.53;10.90;;;;;;;-2.05;100.00;98062.09;5091305;28;21015;-61
2021/12/23 05:40:42;;;;;;;45.07;12.10;;;;;;;-2.05;100.00;98057.66;5091268;28;20667;-62
2021/12/23 05:43:08;;;;;;;36.43;11.93;;;;;;;-1.88;100.00;98040.78;5091161;28;20589;-61
2021/12/23 05:45:35;;;;;;;41.33;11.37;;;;;;;-1.71;100.00;98049.28;5091227;28;20976;-62
2021/12/23 05:48:03;;;;;;;58.33;12.03;;;;;;;-1.48;100.00;98052.56;5091088;28;21394;-63
2021/12/23 05:50:30;;;;;;;31.60;13.23;;;;;;;-1.37;100.00;98051.28;5091179;28;20590;-61
2021/12/23 05:52:57;;;;;;;25.40;11.77;;;;;;;-1.54;100.00;98050.69;5093857;28;20605;-62
2021/12/23 05:55:23;;;;;;;45.33;12.40;;;;;;;-1.50;100.00;98041.47;5093830;28;20653;-62
2021/12/23 05:57:50;;;;;;;47.37;11.67;;;;;;;-1.61;100.00;98044.56;5090910;28;20758;-63
2021/12/23 06:00:19;;;;;;;40.57;11.87;;;;;;;-1.57;100.00;98040.56;5090956;28;20621;-61
2021/12/23 06:02:47;;;;;;;33.10;11.60;;;;;;;-1.49;100.00;98048.34;5082761;28;20601;-61
2021/12/23 06:05:16;;;;;;;58.07;13.40;;;;;;;-1.42;100.00;98046.59;5090903;28;20605;-61
2021/12/23 06:07:42;;;;;;;36.37;11.53;;;;;;;-1.64;100.00;98044.94;5090804;28;20614;-62
2021/12/23 06:10:10;;;;;;;36.63;11.17;;;;;;;-2.24;100.00;98038.06;5090839;28;20606;-62
2021/12/23 06:12:37;;;;;;;32.43;12.70;;;;;;;-2.30;100.00;98038.78;5090576;28;20619;-62
2021/12/23 06:15:05;;;;;;;46.10;11.40;;;;;;;-1.98;100.00;98042.84;5090397;28;20649;-62
2021/12/23 06:17:31;;;;;;;42.20;11.40;;;;;;;-1.83;100.00;98041.06;5090583;28;20609;-63
2021/12/23 06:19:58;;;;;;;58.27;14.00;;;;;;;-1.76;100.00;98035.91;5090303;28;20663;-62
2021/12/23 06:22:26;;;;;;;52.93;13.97;;;;;;;-1.66;100.00;98042.50;5090303;28;20609;-63
2021/12/23 06:24:53;;;;;;;50.23;13.43;;;;;;;-1.68;100.00;98038.44;5096830;28;20625;-62
2021/12/23 06:27:20;;;;;;;41.97;12.13;;;;;;;-1.75;100.00;98035.72;5090316;28;20617;-61
2021/12/23 06:29:47;;;;;;;35.93;13.07;;;;;;;-1.63;100.00;98028.22;5082390;28;20616;-61
2021/12/23 06:32:14;;;;;;;50.37;12.03;;;;;;;-1.56;100.00;98023.88;5090481;28;20605;-61
2021/12/23 06:34:41;;;;;;;47.27;12.50;;;;;;;-1.46;100.00;98020.97;5090097;28;20641;-62
2021/12/23 06:37:07;;;;;;;34.53;12.47;;;;;;;-1.44;100.00;98009.31;5090153;28;20621;-62
2021/12/23 06:39:38;;;;;;;34.90;12.73;;;;;;;-1.65;100.00;98006.66;5090096;28;20602;-62
2021/12/23 06:42:05;;;;;;;77.93;14.93;;;;;;;-1.81;100.00;98002.44;5090008;28;20598;-62
2021/12/23 06:44:32;;;;;;;53.97;12.30;;;;;;;-1.84;100.00;97996.75;5089841;28;20622;-62
2021/12/23 06:46:59;;;;;;;66.73;14.20;;;;;;;-2.11;100.00;97986.94;5089933;28;20609;-62
2021/12/23 06:49:26;;;;;;;65.47;14.77;;;;;;;-2.24;100.00;97991.00;5089878;28;20613;-62
2021/12/23 06:51:53;;;;;;;39.57;12.53;;;;;;;-2.55;100.00;97997.34;5089766;28;20613;-62
2021/12/23 06:54:20;;;;;;;40.07;11.80;;;;;;;-2.12;100.00;98004.44;5089174;28;20675;-62
2021/12/23 06:56:49;;;;;;;53.63;13.60;;;;;;;-2.25;100.00;98015.50;5081849;28;20608;-61
2021/12/23 06:59:16;;;;;;;62.07;14.53;;;;;;;-2.15;100.00;98022.28;5086907;28;20613;-62
2021/12/23 07:01:43;;;;;;;65.03;14.43;;;;;;;-1.93;100.00;98022.22;5089698;28;20723;-61
2021/12/23 07:04:14;;;;;;;36.67;13.27;;;;;;;-1.67;100.00;98034.81;5089653;28;20590;-61
2021/12/23 07:06:47;;;;;;;86.33;16.73;;;;;;;-1.59;100.00;98047.81;5089753;28;20671;-62
2021/12/23 07:09:14;;;;;;;53.67;13.43;;;;;;;-1.40;100.00;98047.25;5089751;28;20613;-62
2021/12/23 07:11:41;;;;;;;49.17;12.87;;;;;;;-1.52;100.00;98017.28;5089564;28;20606;-62
2021/12/23 07:14:09;;;;;;;55.00;13.53;;;;;;;-1.87;100.00;98010.19;5089480;28;20648;-61
2021/12/23 07:16:38;;;;;;;49.77;14.13;;;;;;;-1.80;100.00;98018.94;5089630;28;20711;-62
2021/12/23 07:19:04;;;;;;;54.70;14.27;;;;;;;-1.57;100.00;98013.56;5089589;28;20635;-63
2021/12/23 07:21:31;;;;;;;51.50;12.77;;;;;;;-1.68;100.00;98009.63;5089453;28;20616;-62
2021/12/23 07:23:58;;;;;;;66.63;15.83;;;;;;;-1.83;100.00;98019.31;5095672;28;20656;-62
2021/12/23 07:26:24;;;;;;;49.37;13.70;;;;;;;-1.86;100.00;98024.91;5089474;28;20610;-62
2021/12/23 07:28:51;;;;;;;51.20;14.80;;;;;;;-1.85;100.00;98040.41;5089521;28;20605;-62
2021/12/23 07:31:20;;;;;;;56.83;15.63;;;;;;;-1.51;100.00;98052.13;5089622;28;20598;-63
2021/12/23 07:33:46;;;;;;;51.00;14.00;;;;;;;-1.39;100.00;98061.94;5081286;28;20647;-63
2021/12/23 07:36:17;;;;;;;36.87;12.27;;;;;;;-1.32;100.00;98054.97;5089349;28;20605;-61
2021/12/23 07:38:43;;;;;;;59.50;15.23;;;;;;;-1.25;100.00;98076.03;5090147;28;20601;-62
2021/12/23 07:41:10;;;;;;;61.00;13.50;;;;;;;-1.22;100.00;98078.28;5093556;28;20610;-62
2021/12/23 07:43:58;;;;;;;62.37;14.93;;;;;;;-1.25;100.00;98071.59;5093310;28;20621;-62
2021/12/23 07:46:27;;;;;;;42.17;13.97;;;;;;;-1.26;100.00;98043.75;5093234;28;21596;-63
2021/12/23 07:48:54;;;;;;;53.90;16.33;;;;;;;-1.26;100.00;98041.13;5093334;28;20612;-61
2021/12/23 07:51:21;;;;;;;55.83;14.40;;;;;;;-1.66;100.00;98045.09;5093107;28;20609;-61
2021/12/23 07:53:47;;;;;;;69.60;15.07;;;;;;;-1.72;100.00;98039.78;5099144;28;20623;-62
2021/12/23 07:56:14;;;;;;;61.30;15.70;;;;;;;-2.07;100.00;98030.84;5093084;28;20636;-62
2021/12/23 07:58:41;;;;;;;56.93;13.97;;;;;;;-1.94;100.00;98038.88;5093028;28;20602;-63
2021/12/23 08:01:08;;;;;;;57.30;15.53;;;;;;;-2.17;100.00;98022.47;5093144;28;20590;-62
2021/12/23 08:03:36;;;;;;;66.70;16.60;;;;;;;-2.12;100.00;98027.16;5092836;28;20655;-62
2021/12/23 08:06:03;;;;;;;70.57;14.13;;;;;;;-2.28;100.00;98034.19;5092702;28;20617;-62
2021/12/23 08:08:30;;;;;;;77.70;17.67;;;;;;;-2.19;100.00;98029.69;5092929;28;20614;-63
2021/12/23 08:10:57;;;;;;;53.43;16.50;;;;;;;-2.15;100.00;98040.59;5092969;28;20593;-62
2021/12/23 08:13:23;;;;;;;66.07;16.70;;;;;;;-2.06;100.00;98044.75;5092728;28;20605;-62
2021/12/23 08:15:50;;;;;;;56.17;15.80;;;;;;;-2.01;100.00;98048.44;5092596;28;21295;-62
2021/12/23 08:18:17;;;;;;;59.50;16.27;;;;;;;-2.07;100.00;98009.13;5092728;28;20734;-63
2021/12/23 08:20:45;;;;;;;62.60;17.10;;;;;;;-1.87;100.00;98023.28;5092523;28;21116;-62
2021/12/23 08:23:11;;;;;;;77.33;17.13;;;;;;;-1.55;100.00;98022.88;5097729;28;20609;-63
2021/12/23 08:25:38;;;;;;;55.17;16.63;;;;;;;-1.67;100.00;98029.56;5093707;28;20623;-62
2021/12/23 08:28:05;;;;;;;109.07;17.40;;;;;;;-1.89;100.00;98027.91;5092533;28;20601;-62
2021/12/23 08:30:32;;;;;;;38.43;14.57;;;;;;;-2.13;100.00;98030.75;5092540;28;20632;-61
2021/12/23 08:32:59;;;;;;;43.60;13.77;;;;;;;-1.95;100.00;98018.16;5092333;28;20620;-62
2021/12/23 08:35:26;;;;;;;63.40;18.07;;;;;;;-1.70;100.00;98006.38;5092146;28;20687;-63
2021/12/23 08:37:54;;;;;;;55.03;16.50;;;;;;;-1.51;100.00;98011.03;5092504;28;20617;-62
2021/12/23 08:40:24;;;;;;;69.50;17.47;;;;;;;-1.65;100.00;98006.66;5092188;28;21127;-62
2021/12/23 08:42:52;;;;;;;60.23;16.27;;;;;;;-1.48;100.00;98002.81;5092089;28;20617;-61
2021/12/23 08:45:19;;;;;;;71.23;17.10;;;;;;;-1.57;100.00;97998.66;5092447;28;20659;-62
2021/12/23 08:47:46;;;;;;;76.13;15.70;;;;;;;-1.69;100.00;97987.06;5083998;28;20674;-63
2021/12/23 08:50:15;;;;;;;55.57;15.90;;;;;;;-1.48;100.00;97971.38;5091121;28;20613;-62
2021/12/23 08:52:42;;;;;;;76.40;17.07;;;;;;;-1.35;100.00;97975.94;5093177;28;20636;-63
2021/12/23 08:55:12;;;;;;;53.63;15.90;;;;;;;-1.26;100.00;97986.13;5097048;28;20641;-62
2021/12/23 08:57:39;;;;;;;47.40;15.90;;;;;;;-1.36;100.00;97985.59;5092013;28;20617;-62
2021/12/23 09:00:09;;;;;;;52.27;13.97;;;;;;;-1.23;100.00;97984.94;5091925;28;20614;-62
2021/12/23 09:02:35;;;;;;;47.80;14.67;;;;;;;-1.16;100.00;97993.69;5091950;28;20614;-62
2021/12/23 09:05:03;;;;;;;47.83;16.57;;;;;;;-1.17;100.00;98000.72;5091959;28;20638;-62
2021/12/23 09:07:29;;;;;;;47.67;14.03;;;;;;;-1.18;100.00;98004.34;5091833;28;20593;-62
2021/12/23 09:09:56;;;;;;;58.30;16.80;;;;;;;-1.09;100.00;98007.66;5091834;28;20598;-61
2021/12/23 09:12:25;;;;;;;85.97;15.90;;;;;;;-1.09;100.00;98018.16;5091790;28;20616;-62
2021/12/23 09:14:52;;;;;;;49.47;16.20;;;;;;;-1.17;100.00;98013.81;5091729;28;20651;-62
2021/12/23 09:17:19;;;;;;;98.90;18.57;;;;;;;-1.16;100.00;98022.50;5091469;28;21160;-62
2021/12/23 09:19:46;;;;;;;77.97;16.77;;;;;;;-1.14;100.00;98034.41;5083048;28;20613;-62
2021/12/23 09:22:12;;;;;;;71.43;16.57;;;;;;;-1.13;100.00;98028.19;5091131;28;20656;-62
2021/12/23 09:24:45;;;;;;;42.50;14.20;;;;;;;-1.08;100.00;98027.63;5097798;28;20612;-61
2021/12/23 09:27:22;;;;;;;60.40;14.83;;;;;;;-1.02;100.00;98034.72;5091581;28;20617;-62
2021/12/23 09:32:53;;;;;;;62.53;17.00;;;;;;;-1.21;100.00;98017.03;5091360;28;20691;-61
2021/12/23 09:35:21;;;;;;;112.43;18.10;;;;;;;-1.22;100.00;98024.06;5091250;28;20673;-63
2021/12/23 09:37:49;;;;;;;51.70;15.47;;;;;;;-1.20;100.00;98026.47;5083446;28;20612;-62
2021/12/23 09:40:16;;;;;;;65.13;18.20;;;;;;;-1.17;100.00;98032.16;5091421;28;20598;-62
2021/12/23 09:42:44;;;;;;;62.83;19.53;;;;;;;-1.02;100.00;98023.47;5091198;28;20605;-63
2021/12/23 09:45:17;;;;;;;119.90;19.37;;;;;;;-1.11;100.00;97999.97;5091151;28;20704;-62
2021/12/23 09:47:46;;;;;;;55.10;17.73;;;;;;;-1.50;100.00;97983.84;5091239;28;20613;-62
2021/12/23 09:50:16;;;;;;;75.73;16.30;;;;;;;-1.91;100.00;97961.81;5091032;28;20616;-62
2021/12/23 09:52:45;;;;;;;87.20;20.10;;;;;;;-1.96;100.00;97987.72;5091961;28;20593;-61
2021/12/23 09:55:13;;;;;;;96.67;24.83;;;;;;;-2.26;100.00;97990.34;5095680;28;20667;-62
2021/12/23 09:57:40;;;;;;;56.67;19.20;;;;;;;-1.85;100.00;97993.31;5090957;28;20594;-63
2021/12/23 10:00:11;;;;;;;67.47;20.20;;;;;;;-1.69;100.00;97958.25;5090684;28;20606;-63
2021/12/23 10:02:41;;;;;;;69.63;18.60;;;;;;;-1.94;100.00;97956.94;5090486;28;20621;-61
2021/12/23 10:05:11;;;;;;;59.07;17.63;;;;;;;-1.91;100.00;97951.34;5090781;28;20609;-62
2021/12/23 10:07:39;;;;;;;91.10;23.60;;;;;;;-2.04;100.00;97959.06;5090462;28;20605;-62
2021/12/23 10:10:12;;;;;;;72.10;19.60;;;;;;;-2.00;100.00;97971.56;5090556;28;20613;-63
2021/12/23 10:31:58;;;;;;;47.30;16.70;;;;;;;-1.15;100.00;97956.81;5081494;28;20645;-61
2021/12/23 10:37:22;;;;;;;76.30;18.30;;;;;;;-1.25;100.00;97924.88;5090190;28;20622;-62
2021/12/23 10:39:52;;;;;;;58.50;16.43;;;;;;;-1.17;100.00;97919.50;5082070;28;20620;-62
2021/12/23 10:42:21;;;;;;;76.73;17.27;;;;;;;-1.34;100.00;97920.75;5090176;28;20636;-62
2021/12/23 10:44:52;;;;;;;54.90;16.73;;;;;;;-1.32;100.00;97908.28;5082231;28;20613;-63
2021/12/23 10:47:40;;;;;;;93.33;17.53;;;;;;;-1.44;100.00;97907.16;5090066;28;20618;-61
2021/12/23 10:50:21;;;;;;;68.37;15.93;;;;;;;-1.55;100.00;97905.06;5084509;28;20601;-62
2021/12/23 10:52:52;;;;;;;59.03;15.80;;;;;;;-1.58;100.00;97897.56;5083338;28;20624;-62
2021/12/23 10:58:15;;;;;;;86.67;18.00;;;;;;;-1.32;100.00;97892.56;5084009;28;20636;-61
2021/12/23 11:00:45;;;;;;;49.83;16.70;;;;;;;-1.36;100.00;97872.97;5089940;28;20655;-62
2021/12/23 11:03:17;;;;;;;60.30;16.33;;;;;;;-1.39;100.00;97877.81;5089830;28;20598;-62
2021/12/23 11:05:57;;;;;;;87.10;19.13;;;;;;;-1.26;100.00;97880.50;5089700;28;20594;-61
2021/12/23 11:08:31;;;;;;;78.33;19.20;;;;;;;-1.55;100.00;97876.25;5089449;28;20617;-62
2021/12/23 11:11:28;;;;;;;50.87;16.30;;;;;;;-1.44;100.00;97870.50;5089542;28;20601;-62
2021/12/23 11:28:13;;;;;;;78.13;16.90;;;;;;;-1.02;100.00;97860.97;5081110;28;20612;-62
2021/12/23 11:37:04;;;;;;;63.50;17.83;;;;;;;-1.45;100.00;97828.75;5089310;28;20637;-62
2021/12/23 11:39:45;;;;;;;50.53;17.27;;;;;;;-1.41;100.00;97849.16;5089285;28;20615;-61
2021/12/23 11:42:17;;;;;;;55.13;17.97;;;;;;;-1.34;100.00;97847.41;5089352;28;20610;-62
2021/12/23 11:44:44;;;;;;;41.80;15.43;;;;;;;-1.21;100.00;97847.50;5089485;28;20594;-62
2021/12/23 11:47:15;;;;;;;72.70;16.37;;;;;;;-1.27;100.00;97837.78;5089446;28;20613;-61
2021/12/23 11:49:44;;;;;;;68.23;16.63;;;;;;;-1.37;100.00;97832.06;5089363;28;20704;-62
2021/12/23 11:52:11;;;;;;;76.13;17.70;;;;;;;-1.34;100.00;97815.97;5089234;28;20651;-61
2021/12/23 11:54:42;;;;;;;47.50;18.00;;;;;;;-1.28;100.00;97812.59;5095711;28;20593;-62
2021/12/23 11:57:13;;;;;;;55.70;16.27;;;;;;;-1.25;100.00;97809.59;5089169;28;20641;-62
2021/12/23 11:59:42;;;;;;;53.50;19.10;;;;;;;-1.37;100.00;97805.06;5089511;28;20601;-62
2021/12/23 12:02:14;;;;;;;45.83;14.50;;;;;;;-1.26;100.00;97805.34;5088995;28;20605;-61
2021/12/23 12:04:41;;;;;;;63.20;18.20;;;;;;;-1.00;100.00;97803.91;5089466;28;20680;-62
2021/12/23 12:07:14;;;;;;;46.23;18.03;;;;;;;-0.98;100.00;97789.59;5089161;28;20604;-62